Time;durP1;ratioP1;P1;durP2;ratioP2;P2;SDS_P1;SDS_P2;PMS_P1;PMS_P2;Temp;Humidity;BMP_temperature;BMP_pressure;BME280_temperature;BME280_humidity;BME280_pressure;Samples;Min_cycle;Max_cycle;Signal;HPM_P1;HPM_P2
2022/11/14 00:00:10;;;;;;;7.03;4.15;;;10.60;72.00;;;;;;2401922;55;21438;-74
2022/11/14 00:02:36;;;;;;;6.75;4.43;;;10.60;72.00;;;;;;2265417;55;21437;-72
2022/11/14 00:05:04;;;;;;;6.15;3.87;;;10.60;72.10;;;;;;2261695;56;21410;-73
2022/11/14 00:07:30;;;;;;;5.93;3.60;;;10.60;72.10;;;;;;2490537;55;20936;-73
2022/11/14 00:10:07;;;;;;;6.10;3.95;;;10.60;72.20;;;;;;2363218;55;21402;-75
2022/11/14 00:12:33;;;;;;;6.10;3.83;;;10.60;72.00;;;;;;2261937;56;21064;-73
2022/11/14 00:15:00;;;;;;;7.43;3.90;;;10.60;72.10;;;;;;2264636;55;20989;-75
2022/11/14 00:17:26;;;;;;;6.18;4.12;;;10.60;72.20;;;;;;2478627;54;21458;-73
2022/11/14 00:19:52;;;;;;;5.97;3.55;;;10.60;72.20;;;;;;2260712;56;21363;-75
2022/11/14 00:22:19;;;;;;;6.03;3.70;;;10.60;72.20;;;;;;2490124;55;21312;-74
2022/11/14 00:24:45;;;;;;;5.32;3.22;;;10.60;72.10;;;;;;2261095;56;21364;-74
2022/11/14 00:27:12;;;;;;;5.95;3.15;;;10.60;72.00;;;;;;2261809;56;20985;-75
2022/11/14 00:29:38;;;;;;;5.57;3.08;;;10.60;71.90;;;;;;2261774;56;20960;-75
2022/11/14 00:32:05;;;;;;;4.85;3.10;;;10.60;71.90;;;;;;2261652;56;21372;-71
2022/11/14 00:34:31;;;;;;;5.25;3.10;;;10.60;71.90;;;;;;2261830;56;20973;-74
2022/11/14 00:36:57;;;;;;;4.53;2.65;;;10.60;71.90;;;;;;2330416;55;20945;-73
2022/11/14 00:39:26;;;;;;;6.22;3.45;;;10.60;71.90;;;;;;2368278;55;20997;-74
2022/11/14 00:41:52;;;;;;;5.35;3.20;;;10.60;71.90;;;;;;2261987;56;21652;-76
2022/11/14 00:44:19;;;;;;;4.90;2.72;;;10.60;71.80;;;;;;2261592;56;20986;-72
2022/11/14 00:46:45;;;;;;;4.32;2.65;;;10.60;71.70;;;;;;2490730;55;21001;-74
2022/11/14 00:49:11;;;;;;;3.87;2.20;;;10.50;71.50;;;;;;2262309;56;20961;-75
2022/11/14 00:51:38;;;;;;;4.05;2.28;;;10.50;71.40;;;;;;2262026;56;21383;-76
2022/11/14 00:54:05;;;;;;;3.55;2.00;;;10.50;71.50;;;;;;2261637;56;21434;-75
2022/11/14 00:56:31;;;;;;;4.15;2.37;;;10.50;71.50;;;;;;2262079;56;21328;-74
2022/11/14 00:58:57;;;;;;;6.62;2.85;;;10.50;71.50;;;;;;2490147;55;21432;-74
2022/11/14 01:01:24;;;;;;;4.55;2.42;;;10.50;71.50;;;;;;2261992;56;20948;-73
2022/11/14 01:03:50;;;;;;;4.50;2.78;;;10.50;71.60;;;;;;2261719;56;20961;-76
2022/11/14 01:06:16;;;;;;;4.80;2.83;;;10.50;71.70;;;;;;2490124;55;20981;-74
2022/11/14 01:08:43;;;;;;;4.72;2.97;;;10.40;71.60;;;;;;2261579;56;20933;-72
2022/11/14 01:11:11;;;;;;;4.32;2.10;;;10.40;71.60;;;;;;2490690;55;21186;-72
2022/11/14 01:13:37;;;;;;;3.25;1.85;;;10.40;71.60;;;;;;2490233;55;21037;-75
2022/11/14 01:16:04;;;;;;;3.67;2.00;;;10.40;71.60;;;;;;2413363;55;21735;-73
2022/11/14 01:18:31;;;;;;;3.70;1.90;;;10.40;71.60;;;;;;2490357;55;20989;-75
2022/11/14 01:20:58;;;;;;;6.22;1.92;;;10.40;71.60;;;;;;2489731;55;21438;-73
2022/11/14 01:23:27;;;;;;;3.75;1.87;;;10.40;71.50;;;;;;2490691;55;21403;-74
2022/11/14 01:25:53;;;;;;;3.22;1.73;;;10.40;71.40;;;;;;2261103;56;20992;-72
2022/11/14 01:28:20;;;;;;;3.08;1.58;;;10.40;71.50;;;;;;2261803;56;21000;-73
2022/11/14 01:30:46;;;;;;;2.78;1.60;;;10.40;71.20;;;;;;2432777;55;22026;-74
2022/11/14 01:33:12;;;;;;;3.40;1.77;;;10.30;70.90;;;;;;2259745;56;20989;-74
2022/11/14 01:35:39;;;;;;;2.83;1.60;;;10.30;70.80;;;;;;2260820;56;21025;-71
2022/11/14 01:38:05;;;;;;;3.35;1.83;;;10.30;70.80;;;;;;2261309;56;20980;-73
2022/11/14 01:44:00;;;;;;;4.00;2.00;;;10.20;70.30;;;;;;2480178;54;21020;-74
2022/11/14 01:46:32;;;;;;;5.07;2.22;;;10.20;70.70;;;;;;2490439;55;20968;-73
2022/11/14 01:49:21;;;;;;;3.97;2.05;;;10.20;70.60;;;;;;2272150;55;20988;-75
2022/11/14 01:51:59;;;;;;;4.05;2.15;;;10.10;70.10;;;;;;2454350;55;21028;-76
2022/11/14 01:54:27;;;;;;;4.40;2.30;;;10.10;70.10;;;;;;2240164;55;21043;-74
2022/11/14 01:56:58;;;;;;;7.20;3.87;;;10.00;70.20;;;;;;2464943;54;21000;-77
2022/11/14 01:59:30;;;;;;;10.82;6.32;;;10.00;70.20;;;;;;2361808;55;21012;-76
2022/11/14 02:01:57;;;;;;;13.40;7.15;;;10.00;70.20;;;;;;2459543;55;20959;-74
2022/11/14 02:04:26;;;;;;;13.93;7.15;;;9.90;71.20;;;;;;2232981;56;21034;-73
2022/11/14 02:06:56;;;;;;;9.00;4.85;;;9.90;71.20;;;;;;2435678;55;21734;-75
2022/11/14 02:09:22;;;;;;;6.95;3.58;;;9.90;71.20;;;;;;2459943;55;20945;-75
2022/11/14 02:11:48;;;;;;;5.40;2.80;;;9.80;71.20;;;;;;2346527;55;20893;-72
2022/11/14 02:14:15;;;;;;;4.40;2.28;;;9.80;71.10;;;;;;2243940;56;20955;-75
2022/11/14 02:16:41;;;;;;;4.05;2.10;;;9.70;71.00;;;;;;2356280;55;21064;-76
2022/11/14 02:19:13;;;;;;;3.50;1.80;;;9.70;71.00;;;;;;2241553;56;21015;-74
2022/11/14 02:21:44;;;;;;;3.15;1.67;;;9.70;70.90;;;;;;2460206;55;20946;-74
2022/11/14 02:24:10;;;;;;;3.65;1.87;;;9.60;71.00;;;;;;2243922;56;21068;-76
2022/11/14 02:26:39;;;;;;;2.50;1.20;;;9.60;71.00;;;;;;2245906;56;20953;-75
2022/11/14 02:29:06;;;;;;;3.58;2.00;;;9.50;70.80;;;;;;2458728;55;20961;-72
2022/11/14 02:31:34;;;;;;;4.85;1.95;;;9.40;70.80;;;;;;2459601;55;20961;-75
2022/11/14 02:34:00;;;;;;;2.97;1.65;;;9.40;70.90;;;;;;2236169;56;21393;-76
2022/11/14 02:36:27;;;;;;;3.55;2.05;;;9.40;71.00;;;;;;2460300;55;21368;-74
2022/11/14 02:38:54;;;;;;;4.03;2.08;;;9.30;71.00;;;;;;2236234;56;20946;-71
2022/11/14 02:41:21;;;;;;;4.28;2.20;;;9.30;71.10;;;;;;2474234;55;20912;-72
2022/11/14 02:43:47;;;;;;;4.90;2.10;;;9.30;71.10;;;;;;2257333;56;21015;-75
2022/11/14 02:46:14;;;;;;;5.43;2.70;;;9.20;71.00;;;;;;2466321;55;20972;-74
2022/11/14 02:48:40;;;;;;;3.72;2.17;;;9.20;71.10;;;;;;2422762;55;21085;-70
2022/11/14 02:51:07;;;;;;;3.87;2.28;;;9.20;71.30;;;;;;2490872;55;21016;-71
2022/11/14 02:53:33;;;;;;;5.03;2.78;;;9.10;71.40;;;;;;2490435;55;20933;-75
2022/11/14 02:56:00;;;;;;;4.82;2.80;;;9.10;71.60;;;;;;2490896;55;21827;-73
2022/11/14 02:58:26;;;;;;;4.97;3.15;;;9.10;71.70;;;;;;2299157;55;21680;-73
2022/11/14 03:00:53;;;;;;;4.30;2.30;;;9.10;71.80;;;;;;2487394;55;20969;-70
2022/11/14 03:03:39;;;;;;;4.35;2.37;;;9.10;71.90;;;;;;2262230;56;20953;-76
2022/11/14 03:06:06;;;;;;;4.85;2.03;;;9.00;71.80;;;;;;2490504;55;20945;-75
2022/11/14 03:08:32;;;;;;;4.15;2.22;;;9.00;71.90;;;;;;2261443;56;21063;-77
2022/11/14 03:11:06;;;;;;;4.05;2.25;;;9.00;71.90;;;;;;2490796;55;20917;-72
2022/11/14 03:13:33;;;;;;;4.12;2.40;;;9.00;71.90;;;;;;2264153;56;20964;-76
2022/11/14 03:16:09;;;;;;;4.75;2.50;;;9.00;71.90;;;;;;2441735;55;21458;-74
2022/11/14 03:18:35;;;;;;;4.93;2.58;;;9.00;71.90;;;;;;2490969;55;20949;-72
2022/11/14 03:21:21;;;;;;;5.80;3.60;;;9.00;72.00;;;;;;2490516;54;21792;-76
2022/11/14 03:23:48;;;;;;;6.05;3.45;;;9.00;71.90;;;;;;2490584;55;21443;-72
2022/11/14 03:26:17;;;;;;;6.15;3.20;;;9.00;72.20;;;;;;2262213;56;20980;-75
2022/11/14 03:28:44;;;;;;;6.80;3.33;;;9.00;72.30;;;;;;2261394;56;20989;-71
2022/11/14 03:31:11;;;;;;;7.72;4.03;;;9.00;72.30;;;;;;2426687;55;20972;-75
2022/11/14 03:33:37;;;;;;;5.60;2.97;;;9.00;72.40;;;;;;2318175;55;20994;-75
2022/11/14 03:36:04;;;;;;;5.07;3.20;;;9.00;72.50;;;;;;2490390;55;21473;-72
2022/11/14 03:38:31;;;;;;;6.22;3.90;;;9.00;72.50;;;;;;2262123;56;21012;-74
2022/11/14 03:40:59;;;;;;;5.68;3.22;;;9.00;72.50;;;;;;2490839;55;20929;-74
2022/11/14 03:43:27;;;;;;;6.20;3.58;;;9.00;72.60;;;;;;2490491;55;21405;-75
2022/11/14 03:45:56;;;;;;;5.40;3.15;;;9.00;72.60;;;;;;2312466;55;20929;-72
2022/11/14 03:48:23;;;;;;;5.00;2.87;;;9.00;72.50;;;;;;2305745;55;20928;-71
2022/11/14 03:50:52;;;;;;;6.05;3.12;;;9.00;72.40;;;;;;2490271;55;21001;-76
2022/11/14 03:53:18;;;;;;;5.00;2.80;;;9.00;72.30;;;;;;2262425;56;21027;-74
2022/11/14 03:55:45;;;;;;;4.87;2.47;;;9.00;72.30;;;;;;2421171;55;21016;-73
2022/11/14 03:58:11;;;;;;;6.22;3.40;;;9.00;72.30;;;;;;2270040;56;21554;-75
2022/11/14 04:00:38;;;;;;;5.68;3.35;;;9.00;72.30;;;;;;2413084;55;21016;-71
2022/11/14 04:03:05;;;;;;;7.75;3.87;;;9.00;72.40;;;;;;2262080;56;20989;-75
2022/11/14 04:05:32;;;;;;;5.25;3.35;;;9.00;72.40;;;;;;2490674;55;21004;-75
2022/11/14 04:07:58;;;;;;;6.40;3.58;;;9.00;72.40;;;;;;2306167;55;20984;-72
2022/11/14 04:10:24;;;;;;;7.43;4.22;;;9.00;72.50;;;;;;2490633;55;20917;-73
2022/11/14 04:12:51;;;;;;;6.82;3.62;;;9.00;72.50;;;;;;2261712;56;21013;-73
2022/11/14 04:15:19;;;;;;;5.47;3.12;;;9.00;72.50;;;;;;2371520;55;21072;-73
2022/11/14 04:17:49;;;;;;;7.30;3.97;;;9.00;72.40;;;;;;2490098;55;21564;-73
2022/11/14 04:20:16;;;;;;;5.70;3.55;;;9.00;72.30;;;;;;2491059;55;21016;-76
2022/11/14 04:22:44;;;;;;;6.10;3.50;;;9.00;72.30;;;;;;2491239;55;20945;-71
2022/11/14 04:25:11;;;;;;;6.43;3.90;;;9.00;72.30;;;;;;2490892;55;21016;-71
2022/11/14 04:27:37;;;;;;;7.20;4.05;;;9.00;72.20;;;;;;2266008;56;21036;-74
2022/11/14 04:30:06;;;;;;;7.22;3.92;;;9.00;72.30;;;;;;2495634;55;20949;-71
2022/11/14 04:32:33;;;;;;;6.05;3.40;;;9.00;72.20;;;;;;2261131;56;21503;-75
2022/11/14 04:35:00;;;;;;;7.40;3.92;;;8.90;72.10;;;;;;2490923;55;20937;-71
2022/11/14 04:37:27;;;;;;;7.82;3.97;;;8.90;72.00;;;;;;2262303;56;20992;-72
2022/11/14 04:39:57;;;;;;;6.60;3.97;;;8.90;72.00;;;;;;2270472;55;21072;-74
2022/11/14 04:42:24;;;;;;;6.20;3.37;;;8.90;72.00;;;;;;2265346;55;20947;-75
2022/11/14 04:44:51;;;;;;;6.45;3.75;;;8.90;72.10;;;;;;2412208;55;21083;-76
2022/11/14 04:47:17;;;;;;;6.53;3.60;;;8.90;72.10;;;;;;2261751;56;21701;-77
2022/11/14 04:49:44;;;;;;;6.20;3.65;;;8.90;72.20;;;;;;2490536;55;21477;-74
2022/11/14 04:52:11;;;;;;;9.13;4.70;;;8.90;72.20;;;;;;2491233;55;20952;-76
2022/11/14 04:54:38;;;;;;;6.95;4.32;;;8.80;72.20;;;;;;2490479;55;20960;-76
2022/11/14 04:57:04;;;;;;;9.25;4.82;;;8.90;72.40;;;;;;2261777;56;21789;-72
2022/11/14 04:59:31;;;;;;;11.68;5.65;;;8.90;72.50;;;;;;2262078;56;20980;-72
2022/11/14 05:01:57;;;;;;;8.35;4.95;;;8.90;72.60;;;;;;2261614;56;21889;-73
2022/11/14 05:04:25;;;;;;;9.23;5.03;;;8.90;72.80;;;;;;2261818;56;21020;-72
2022/11/14 05:06:51;;;;;;;8.75;4.45;;;8.90;72.90;;;;;;2261146;56;21086;-74
2022/11/14 05:09:18;;;;;;;7.28;4.22;;;8.90;72.90;;;;;;2490487;55;20957;-73
2022/11/14 05:11:44;;;;;;;6.93;3.90;;;8.90;73.10;;;;;;2262139;56;20945;-76
2022/11/14 05:14:20;;;;;;;6.43;3.70;;;8.90;73.10;;;;;;2495449;55;20929;-74
2022/11/14 05:16:46;;;;;;;7.05;3.80;;;9.00;73.10;;;;;;2261290;56;21060;-74
2022/11/14 05:19:13;;;;;;;7.00;4.05;;;9.00;73.10;;;;;;2490811;55;20956;-75
2022/11/14 05:21:40;;;;;;;7.97;4.90;;;9.00;73.00;;;;;;2261309;56;21327;-73
2022/11/14 05:24:07;;;;;;;7.70;4.10;;;9.00;73.00;;;;;;2489755;55;20984;-75
2022/11/14 05:26:33;;;;;;;6.62;3.85;;;9.00;73.10;;;;;;2262091;56;21727;-77
2022/11/14 05:29:00;;;;;;;5.55;3.33;;;9.00;73.10;;;;;;2399351;55;20952;-73
2022/11/14 05:31:26;;;;;;;7.87;4.10;;;9.00;73.10;;;;;;2261709;56;21028;-72
2022/11/14 05:33:53;;;;;;;6.68;3.55;;;9.00;73.00;;;;;;2490594;55;20980;-77
2022/11/14 05:36:19;;;;;;;6.53;3.78;;;9.00;72.90;;;;;;2262437;56;20980;-74
2022/11/14 05:38:46;;;;;;;7.82;4.72;;;9.10;73.00;;;;;;2490537;55;21449;-74
2022/11/14 05:41:16;;;;;;;6.93;4.35;;;9.10;73.10;;;;;;2261879;56;21081;-76
2022/11/14 05:43:43;;;;;;;9.02;5.20;;;9.10;73.10;;;;;;2490676;55;21261;-76
2022/11/14 05:46:11;;;;;;;8.07;4.78;;;9.10;73.20;;;;;;2261067;56;20909;-72
2022/11/14 05:48:41;;;;;;;8.60;4.95;;;9.10;73.20;;;;;;2491139;55;20960;-76
2022/11/14 05:51:10;;;;;;;7.35;4.28;;;9.10;73.20;;;;;;2261659;56;21422;-73
2022/11/14 05:53:36;;;;;;;6.32;4.15;;;9.10;73.30;;;;;;2490688;55;21037;-72
2022/11/14 05:56:04;;;;;;;6.25;4.05;;;9.10;73.30;;;;;;2261913;56;21337;-73
2022/11/14 05:58:31;;;;;;;6.12;3.67;;;9.20;73.40;;;;;;2450892;55;21033;-73
2022/11/14 06:01:06;;;;;;;6.30;3.78;;;9.20;74.10;;;;;;2464975;55;21418;-76
2022/11/14 06:03:38;;;;;;;5.82;3.62;;;9.20;73.30;;;;;;2465129;55;21014;-74
2022/11/14 06:06:05;;;;;;;6.50;3.75;;;9.20;73.30;;;;;;2261632;56;21513;-75
2022/11/14 06:08:32;;;;;;;6.60;3.75;;;9.20;73.20;;;;;;2490697;55;20933;-73
2022/11/14 06:11:06;;;;;;;8.10;4.12;;;9.20;73.20;;;;;;2243423;56;21902;-73
2022/11/14 06:13:33;;;;;;;7.20;4.00;;;9.30;73.20;;;;;;2261629;56;21043;-73
2022/11/14 06:16:03;;;;;;;6.45;3.62;;;9.30;73.30;;;;;;2261863;56;21038;-73
2022/11/14 06:18:30;;;;;;;6.90;3.55;;;9.30;73.30;;;;;;2491017;55;20969;-74
2022/11/14 06:21:00;;;;;;;7.93;4.57;;;9.30;73.40;;;;;;2261370;56;20968;-72
2022/11/14 06:23:27;;;;;;;6.90;3.95;;;9.30;73.40;;;;;;2490733;55;20964;-77
2022/11/14 06:26:00;;;;;;;7.95;3.97;;;9.30;73.50;;;;;;2261856;56;21048;-75
2022/11/14 06:28:27;;;;;;;6.40;3.90;;;9.30;73.50;;;;;;2261830;56;21082;-75
2022/11/14 06:30:57;;;;;;;6.25;3.70;;;9.40;73.60;;;;;;2261817;56;21087;-72
2022/11/14 06:33:24;;;;;;;7.05;4.25;;;9.40;73.60;;;;;;2490617;55;20981;-76
2022/11/14 06:35:55;;;;;;;6.70;4.05;;;9.40;73.60;;;;;;2261359;56;20957;-73
2022/11/14 06:38:21;;;;;;;7.17;4.53;;;9.40;73.60;;;;;;2262493;56;21076;-73
2022/11/14 06:40:48;;;;;;;7.03;4.30;;;9.40;73.60;;;;;;2468925;55;20913;-77
2022/11/14 06:43:14;;;;;;;7.68;4.25;;;9.50;73.80;;;;;;2261776;56;21072;-73
2022/11/14 06:45:40;;;;;;;7.25;4.00;;;9.50;73.80;;;;;;2421330;55;21001;-77
2022/11/14 06:48:07;;;;;;;5.93;3.90;;;9.50;73.80;;;;;;2261371;56;21040;-75
2022/11/14 06:50:33;;;;;;;6.43;4.05;;;9.50;73.70;;;;;;2261860;56;21044;-76
2022/11/14 06:53:00;;;;;;;7.30;4.32;;;9.50;73.70;;;;;;2490365;55;21418;-75
2022/11/14 06:55:26;;;;;;;6.68;3.95;;;9.60;73.70;;;;;;2490873;55;20930;-76
2022/11/14 06:57:55;;;;;;;5.68;3.20;;;9.60;73.80;;;;;;2261800;56;21424;-76
2022/11/14 07:00:22;;;;;;;7.25;3.92;;;9.60;73.70;;;;;;2261922;56;21048;-75
2022/11/14 07:02:48;;;;;;;6.15;3.08;;;9.60;73.70;;;;;;2261522;56;20949;-73
2022/11/14 07:05:15;;;;;;;6.25;3.40;;;9.60;74.40;;;;;;2490433;55;20937;-73
2022/11/14 07:07:41;;;;;;;6.75;4.05;;;9.70;73.80;;;;;;2383358;55;20957;-74
2022/11/14 07:10:08;;;;;;;8.48;5.22;;;9.70;73.70;;;;;;2490249;55;21028;-74
2022/11/14 07:12:35;;;;;;;8.38;4.47;;;9.70;73.70;;;;;;2262253;56;21520;-74
2022/11/14 07:15:01;;;;;;;7.68;4.07;;;9.70;73.80;;;;;;2264362;56;20956;-73
2022/11/14 07:17:27;;;;;;;11.95;4.60;;;9.70;73.80;;;;;;2261953;56;21426;-76
2022/11/14 07:19:56;;;;;;;6.93;3.97;;;9.70;73.80;;;;;;2490729;55;22130;-74
2022/11/14 07:22:23;;;;;;;6.47;3.83;;;9.80;73.80;;;;;;2261890;56;22536;-74
2022/11/14 07:24:49;;;;;;;9.27;4.93;;;9.80;73.80;;;;;;2261441;56;21514;-74
2022/11/14 07:27:15;;;;;;;8.50;5.32;;;9.80;73.80;;;;;;2490135;55;20957;-77
2022/11/14 07:29:42;;;;;;;7.47;5.35;;;9.80;73.80;;;;;;2261917;56;20948;-73
2022/11/14 07:32:09;;;;;;;9.23;5.95;;;9.80;74.30;;;;;;2260744;56;21049;-72
2022/11/14 07:34:35;;;;;;;10.35;6.00;;;9.80;73.80;;;;;;2261810;56;21020;-76
2022/11/14 07:37:01;;;;;;;8.43;5.25;;;9.90;74.00;;;;;;2261482;56;21444;-74
2022/11/14 07:39:28;;;;;;;6.80;4.32;;;9.90;74.10;;;;;;2490120;55;21509;-74
2022/11/14 07:41:54;;;;;;;5.87;3.72;;;9.90;74.10;;;;;;2261614;56;21030;-72
2022/11/14 07:44:20;;;;;;;6.97;3.60;;;9.90;74.20;;;;;;2265781;55;21512;-76
2022/11/14 07:46:48;;;;;;;5.85;3.25;;;10.00;73.20;;;;;;2260236;55;21037;-74
2022/11/14 07:49:15;;;;;;;5.97;3.00;;;10.00;73.20;;;;;;2261538;56;21549;-73
2022/11/14 07:51:41;;;;;;;5.72;3.17;;;10.00;73.20;;;;;;2261459;56;21021;-74
2022/11/14 07:54:10;;;;;;;4.85;2.70;;;10.00;73.20;;;;;;2261303;56;21008;-77
2022/11/14 07:56:36;;;;;;;5.65;2.95;;;10.10;73.30;;;;;;2344617;55;20969;-74
2022/11/14 07:59:03;;;;;;;5.65;3.33;;;10.10;73.30;;;;;;2261635;56;21256;-75
2022/11/14 08:01:29;;;;;;;5.12;3.10;;;10.10;73.30;;;;;;2261323;56;21083;-74
2022/11/14 08:03:55;;;;;;;4.78;2.75;;;10.20;73.40;;;;;;2261449;56;21012;-73
2022/11/14 08:06:22;;;;;;;5.22;2.85;;;10.20;73.30;;;;;;2261322;56;21551;-74
2022/11/14 08:08:48;;;;;;;5.12;2.83;;;10.20;73.40;;;;;;2260973;56;21033;-77
2022/11/14 08:11:14;;;;;;;6.80;4.35;;;10.20;73.40;;;;;;2261414;56;21379;-76
2022/11/14 08:14:06;;;;;;;8.00;4.30;;;10.30;73.40;;;;;;2261625;56;20997;-75
2022/11/14 08:16:33;;;;;;;6.53;3.87;;;10.30;73.10;;;;;;2261287;56;20965;-76
2022/11/14 08:18:59;;;;;;;6.75;4.07;;;10.30;73.30;;;;;;2490089;55;21631;-75
2022/11/14 08:21:26;;;;;;;6.32;4.00;;;10.30;73.20;;;;;;2261359;56;21005;-76
2022/11/14 08:23:52;;;;;;;5.75;3.55;;;10.40;73.30;;;;;;2261214;56;20964;-77
2022/11/14 08:26:19;;;;;;;5.72;3.42;;;10.40;73.30;;;;;;2261447;56;21348;-74
2022/11/14 08:28:45;;;;;;;7.07;4.47;;;10.40;73.30;;;;;;2261548;56;20948;-76
2022/11/14 08:31:12;;;;;;;6.05;3.85;;;10.40;73.50;;;;;;2261465;56;21513;-76
2022/11/14 08:33:38;;;;;;;6.72;3.65;;;10.50;73.70;;;;;;2490533;55;20940;-72
2022/11/14 08:36:06;;;;;;;5.60;3.20;;;10.50;73.70;;;;;;2489479;55;21036;-75
2022/11/14 08:38:32;;;;;;;6.85;3.87;;;10.50;73.70;;;;;;2262031;56;20948;-77
2022/11/14 08:40:59;;;;;;;7.07;3.92;;;10.60;73.90;;;;;;2490635;55;20945;-73
2022/11/14 08:43:26;;;;;;;7.12;3.78;;;10.60;73.90;;;;;;2491028;55;21360;-73
2022/11/14 08:45:55;;;;;;;8.25;4.50;;;10.70;74.00;;;;;;2261209;56;20969;-74
2022/11/14 08:48:21;;;;;;;6.12;4.05;;;10.70;74.00;;;;;;2262184;56;21410;-75
2022/11/14 08:50:48;;;;;;;6.55;4.10;;;10.70;74.00;;;;;;2364480;55;21076;-74
2022/11/14 08:53:14;;;;;;;6.10;3.53;;;10.80;74.10;;;;;;2261479;56;21648;-75
2022/11/14 08:55:44;;;;;;;6.55;4.20;;;10.80;74.20;;;;;;2491142;55;21541;-72
2022/11/14 08:58:11;;;;;;;6.00;3.60;;;10.90;74.20;;;;;;2262145;56;20949;-75
2022/11/14 09:00:37;;;;;;;7.62;4.85;;;10.90;74.30;;;;;;2491392;55;20933;-76
2022/11/14 09:03:12;;;;;;;6.90;4.57;;;10.90;74.20;;;;;;2262236;56;20965;-77
2022/11/14 09:05:39;;;;;;;6.72;4.28;;;11.10;74.30;;;;;;2262416;56;21449;-75
2022/11/14 09:08:06;;;;;;;7.22;4.30;;;11.10;74.40;;;;;;2452480;55;21372;-76
2022/11/14 09:10:33;;;;;;;7.03;4.62;;;11.10;74.40;;;;;;2262066;56;20988;-73
2022/11/14 09:13:00;;;;;;;7.03;4.55;;;11.20;74.50;;;;;;2261402;56;21592;-73
2022/11/14 09:15:26;;;;;;;7.10;4.68;;;11.20;74.40;;;;;;2262219;56;21438;-74
2022/11/14 09:17:53;;;;;;;7.85;4.70;;;11.20;74.50;;;;;;2261881;56;20985;-75
2022/11/14 09:20:21;;;;;;;8.73;5.32;;;11.30;74.50;;;;;;2261817;56;21481;-77
2022/11/14 09:22:49;;;;;;;9.15;5.75;;;11.30;74.40;;;;;;2261783;56;21540;-74
2022/11/14 09:25:15;;;;;;;8.65;5.55;;;11.40;74.50;;;;;;2379576;55;20964;-73
2022/11/14 09:27:42;;;;;;;11.07;5.93;;;11.40;74.40;;;;;;2260948;56;21012;-77
2022/11/14 09:30:09;;;;;;;7.50;4.90;;;11.50;74.50;;;;;;2296577;55;21033;-76
2022/11/14 09:32:35;;;;;;;10.15;6.25;;;11.50;74.50;;;;;;2262142;56;20937;-75
2022/11/14 09:35:03;;;;;;;9.38;5.85;;;11.50;74.40;;;;;;2261292;56;20956;-74
2022/11/14 09:37:29;;;;;;;8.20;5.47;;;11.60;74.50;;;;;;2490631;55;21318;-73
2022/11/14 09:39:55;;;;;;;7.55;4.95;;;11.60;74.50;;;;;;2315470;55;21065;-74
2022/11/14 09:45:26;;;;;;;7.47;4.75;;;11.60;74.30;;;;;;2261421;56;21383;-75
2022/11/14 09:48:08;;;;;;;5.87;3.60;;;11.70;74.20;;;;;;2368596;55;20949;-74
2022/11/14 09:50:36;;;;;;;6.87;4.03;;;11.80;74.20;;;;;;2273331;55;20940;-73
2022/11/14 09:53:06;;;;;;;7.28;4.22;;;11.80;74.00;;;;;;2262143;56;21429;-75
2022/11/14 09:55:33;;;;;;;6.30;3.80;;;11.90;74.10;;;;;;2262403;56;21067;-76
2022/11/14 09:58:02;;;;;;;10.38;4.62;;;11.90;74.20;;;;;;2261951;56;21036;-74
2022/11/14 10:00:36;;;;;;;5.93;3.62;;;11.90;74.20;;;;;;2312159;55;21249;-74
2022/11/14 10:03:09;;;;;;;5.50;3.30;;;11.90;74.20;;;;;;2261754;56;21537;-75
2022/11/14 10:06:44;;;;;;;4.80;3.08;;;12.00;74.90;;;;;;2262399;56;20992;-72
2022/11/14 10:09:42;;;;;;;5.10;3.05;;;12.00;74.20;;;;;;2343706;55;20970;-73
2022/11/14 10:12:16;;;;;;;4.68;2.78;;;12.10;73.80;;;;;;2261709;56;20961;-73
2022/11/14 10:16:44;;;;;;;4.93;2.75;;;12.10;74.00;;;;;;2490680;55;21421;-75
2022/11/14 10:19:19;;;;;;;4.15;2.40;;;12.10;73.90;;;;;;2490079;55;20956;-76
2022/11/14 10:22:13;;;;;;;4.18;2.20;;;12.20;73.90;;;;;;2490455;55;20961;-76
2022/11/14 10:27:51;;;;;;;3.90;2.25;;;12.20;73.60;;;;;;2389563;55;21429;-72
2022/11/14 10:30:21;;;;;;;3.20;1.70;;;12.30;73.20;;;;;;2262052;56;21372;-74
2022/11/14 10:33:11;;;;;;;3.60;2.05;;;12.30;73.90;;;;;;2261706;56;21360;-76
2022/11/14 10:35:48;;;;;;;3.92;2.30;;;12.30;73.50;;;;;;2262349;56;21466;-77
2022/11/14 10:38:53;;;;;;;5.30;2.80;;;12.30;74.00;;;;;;2287352;55;21032;-77
2022/11/14 10:41:19;;;;;;;4.62;2.60;;;12.30;74.00;;;;;;2255709;55;21075;-76
2022/11/14 10:43:54;;;;;;;4.30;2.28;;;12.40;74.30;;;;;;2490649;55;21442;-73
2022/11/14 10:47:03;;;;;;;5.55;3.17;;;12.40;74.40;;;;;;2482605;54;21048;-76
2022/11/14 10:49:31;;;;;;;6.53;3.20;;;12.50;74.20;;;;;;2490770;55;20965;-74
2022/11/14 10:51:59;;;;;;;6.50;3.20;;;12.50;74.50;;;;;;2265420;55;21439;-74
2022/11/14 10:55:00;;;;;;;5.40;3.37;;;12.60;74.60;;;;;;2264022;55;20998;-75
2022/11/14 10:57:27;;;;;;;6.28;3.90;;;12.60;74.10;;;;;;2265022;55;21008;-75
2022/11/14 10:59:54;;;;;;;5.90;3.70;;;12.60;74.40;;;;;;2263816;55;21388;-74
2022/11/14 11:02:21;;;;;;;6.72;3.80;;;12.60;74.40;;;;;;2262147;56;20969;-75
2022/11/14 11:04:47;;;;;;;6.15;3.80;;;12.70;74.50;;;;;;2262036;56;20964;-75
2022/11/14 11:13:05;;;;;;;5.47;3.33;;;12.80;74.00;;;;;;2341705;55;21316;-75
2022/11/14 11:15:39;;;;;;;5.80;3.28;;;12.80;74.30;;;;;;2261907;56;20960;-74
2022/11/14 11:18:34;;;;;;;5.62;3.40;;;12.90;74.20;;;;;;2261479;56;21048;-73
2022/11/14 11:21:08;;;;;;;5.85;3.42;;;12.90;74.00;;;;;;2243143;56;21021;-75
2022/11/14 11:23:35;;;;;;;6.30;3.50;;;13.00;74.40;;;;;;2262737;56;21393;-73
2022/11/14 11:26:07;;;;;;;6.50;3.35;;;13.00;74.50;;;;;;2267687;55;21446;-75
2022/11/14 11:28:35;;;;;;;5.85;3.70;;;13.00;74.40;;;;;;2439451;55;20941;-76
2022/11/14 11:31:05;;;;;;;7.80;4.85;;;13.00;74.40;;;;;;2261801;56;21447;-77
2022/11/14 11:33:33;;;;;;;5.85;4.10;;;13.10;74.30;;;;;;2264999;56;21483;-74
2022/11/14 11:36:22;;;;;;;5.97;3.62;;;13.10;74.40;;;;;;2261397;56;20965;-74
2022/11/14 11:38:48;;;;;;;5.72;3.58;;;13.10;73.80;;;;;;2490096;55;21076;-74
2022/11/14 11:41:28;;;;;;;5.60;3.47;;;13.20;74.50;;;;;;2261823;56;21407;-75
2022/11/14 11:44:30;;;;;;;7.65;4.20;;;13.20;74.10;;;;;;2261601;56;20940;-74
2022/11/14 11:46:59;;;;;;;15.10;9.00;;;13.20;74.40;;;;;;2261590;56;20957;-75
2022/11/14 11:49:48;;;;;;;19.52;11.65;;;13.30;74.50;;;;;;2261451;56;20953;-73
2022/11/14 11:54:12;;;;;;;16.77;9.43;;;13.30;73.90;;;;;;2262027;56;20953;-74
2022/11/14 11:56:39;;;;;;;10.95;6.45;;;13.30;73.40;;;;;;2265537;55;21822;-75
2022/11/14 11:59:36;;;;;;;9.27;6.30;;;13.40;74.40;;;;;;2261121;56;20961;-73
2022/11/14 12:02:12;;;;;;;11.25;5.82;;;13.40;74.20;;;;;;2301843;55;21005;-74
2022/11/14 12:04:38;;;;;;;8.85;5.57;;;13.40;74.70;;;;;;2388666;55;20929;-73
2022/11/14 12:07:13;;;;;;;7.45;4.57;;;13.50;74.90;;;;;;2276711;55;21474;-75
2022/11/14 12:09:40;;;;;;;6.20;3.83;;;13.50;74.90;;;;;;2399021;55;20937;-75
2022/11/14 12:15:45;;;;;;;5.28;2.95;;;13.60;75.10;;;;;;2261741;56;21017;-77
2022/11/14 12:18:34;;;;;;;4.00;2.00;;;13.70;74.40;;;;;;2288225;55;20933;-75
2022/11/14 12:22:50;;;;;;;3.65;1.92;;;13.80;75.20;;;;;;2261820;56;20961;-74
2022/11/14 12:27:03;;;;;;;4.00;2.22;;;13.90;75.40;;;;;;2490259;55;21418;-74
2022/11/14 12:30:30;;;;;;;3.97;2.10;;;14.00;75.20;;;;;;2261820;56;21298;-74
2022/11/14 12:33:07;;;;;;;5.72;2.03;;;14.10;75.40;;;;;;2489781;54;20937;-74
2022/11/14 12:35:34;;;;;;;3.30;1.62;;;14.20;76.60;;;;;;2243712;56;21049;-74
2022/11/14 12:38:11;;;;;;;3.58;1.87;;;14.30;76.80;;;;;;2261452;56;21109;-74
2022/11/14 12:40:47;;;;;;;4.00;2.10;;;14.40;76.80;;;;;;2490368;55;22058;-74
2022/11/14 12:46:10;;;;;;;4.28;2.15;;;14.40;76.90;;;;;;2294317;55;21416;-74
2022/11/14 12:49:11;;;;;;;4.05;1.70;;;14.50;75.60;;;;;;2261872;56;21388;-75
2022/11/14 12:51:48;;;;;;;4.18;1.90;;;14.70;77.10;;;;;;2261974;56;20956;-74
2022/11/14 12:54:40;;;;;;;3.92;2.10;;;14.80;76.50;;;;;;2261712;56;21347;-75
2022/11/14 12:57:08;;;;;;;3.72;1.83;;;14.90;76.20;;;;;;2344146;55;20949;-75
2022/11/14 13:00:14;;;;;;;4.05;2.03;;;15.00;77.00;;;;;;2262247;56;21501;-74
2022/11/14 13:03:13;;;;;;;5.82;2.50;;;15.00;76.70;;;;;;2262030;56;20984;-76
2022/11/14 13:09:18;;;;;;;4.18;2.30;;;15.10;76.20;;;;;;2491225;55;21493;-78
2022/11/14 13:25:13;;;;;;;10.40;3.75;;;15.60;75.90;;;;;;2335260;55;21344;-75
2022/11/14 13:27:40;;;;;;;5.05;2.95;;;15.70;74.90;;;;;;2262303;56;20981;-73
2022/11/14 13:32:08;;;;;;;7.00;2.87;;;15.80;76.40;;;;;;2301202;55;21413;-72
2022/11/14 13:34:48;;;;;;;4.32;1.90;;;15.80;74.60;;;;;;2261583;56;21323;-74
2022/11/14 13:37:38;;;;;;;4.82;2.25;;;15.80;75.60;;;;;;2444490;55;21600;-73
2022/11/14 13:40:18;;;;;;;5.32;2.10;;;15.90;75.30;;;;;;2261368;56;21334;-72
2022/11/14 13:42:51;;;;;;;3.20;1.80;;;15.90;75.20;;;;;;2261752;56;21012;-74
2022/11/14 13:49:01;;;;;;;3.72;1.67;;;15.90;75.10;;;;;;2260790;56;20948;-71
2022/11/14 13:51:28;;;;;;;3.85;1.80;;;16.00;74.10;;;;;;2489542;55;20993;-73
2022/11/14 13:54:14;;;;;;;2.90;1.37;;;16.10;75.40;;;;;;2261151;56;21008;-72
2022/11/14 13:57:14;;;;;;;3.75;1.73;;;16.10;74.80;;;;;;2382475;55;21092;-72